Time;durP1;ratioP1;P1;durP2;ratioP2;P2;SDS_P1;SDS_P2;PMS_P1;PMS_P2;Temp;Humidity;BMP_temperature;BMP_pressure;BME280_temperature;BME280_humidity;BME280_pressure;Samples;Min_cycle;Max_cycle;Signal;HPM_P1;HPM_P2
2021/03/10 00:02:10;;;;;;;58.55;35.70;;;;;;;;;;5136579;27;20247;-64
2021/03/10 00:04:37;;;;;;;58.83;36.30;;;;;;;;;;5136121;27;20307;-65
2021/03/10 00:07:03;;;;;;;55.65;34.47;;;;;;;;;;5136493;27;20235;-64
2021/03/10 00:09:30;;;;;;;60.22;35.92;;;;;;;;;;5136044;27;20280;-65
2021/03/10 00:11:57;;;;;;;55.72;34.50;;;;;;;;;;5136087;27;20558;-65
2021/03/10 00:14:25;;;;;;;66.78;37.60;;;;;;;;;;5136102;27;20291;-65
2021/03/10 00:16:51;;;;;;;63.45;37.30;;;;;;;;;;5136860;27;20651;-65
2021/03/10 00:19:18;;;;;;;67.75;38.42;;;;;;;;;;5135983;27;20242;-64
2021/03/10 00:21:45;;;;;;;62.20;36.97;;;;;;;;;;5136191;27;20653;-65
2021/03/10 00:24:12;;;;;;;58.20;35.92;;;;;;;;;;5135887;27;20228;-64
2021/03/10 00:26:39;;;;;;;63.70;35.75;;;;;;;;;;5136182;27;20228;-65
2021/03/10 00:29:06;;;;;;;62.13;37.13;;;;;;;;;;5134210;27;20279;-64
2021/03/10 00:31:33;;;;;;;57.97;35.95;;;;;;;;;;5136174;27;20188;-65
2021/03/10 00:34:00;;;;;;;61.25;34.97;;;;;;;;;;5136087;27;20200;-64
2021/03/10 00:36:27;;;;;;;61.95;37.95;;;;;;;;;;5135632;27;20287;-65
2021/03/10 00:38:53;;;;;;;61.60;35.83;;;;;;;;;;5135630;27;20236;-64
2021/03/10 00:41:20;;;;;;;57.90;36.35;;;;;;;;;;5135896;27;20295;-65
2021/03/10 00:43:47;;;;;;;63.70;36.67;;;;;;;;;;5135130;27;20308;-65
2021/03/10 00:46:14;;;;;;;63.17;34.35;;;;;;;;;;5136217;27;20279;-65
2021/03/10 00:48:41;;;;;;;56.28;35.97;;;;;;;;;;5135821;27;20224;-65
2021/03/10 00:51:08;;;;;;;58.17;35.08;;;;;;;;;;5135450;27;20283;-65
2021/03/10 00:53:35;;;;;;;55.38;35.58;;;;;;;;;;5135309;27;20606;-64
2021/03/10 00:56:02;;;;;;;61.90;37.17;;;;;;;;;;5135229;27;20195;-64
2021/03/10 00:58:28;;;;;;;61.70;37.60;;;;;;;;;;5133564;27;20271;-64
2021/03/10 01:00:55;;;;;;;60.45;36.25;;;;;;;;;;5134825;27;20279;-66
2021/03/10 01:03:22;;;;;;;67.10;38.40;;;;;;;;;;5134667;27;20712;-65
2021/03/10 01:05:49;;;;;;;63.53;35.70;;;;;;;;;;5135060;27;20283;-65
2021/03/10 01:08:16;;;;;;;57.88;37.13;;;;;;;;;;5135310;27;20297;-64
2021/03/10 01:10:44;;;;;;;61.58;37.47;;;;;;;;;;5135178;27;20231;-66
2021/03/10 01:13:11;;;;;;;60.42;35.22;;;;;;;;;;5135750;27;20225;-67
2021/03/10 01:15:38;;;;;;;60.47;34.78;;;;;;;;;;5134802;27;20325;-66
2021/03/10 01:18:05;;;;;;;65.35;37.63;;;;;;;;;;5135168;27;20211;-67
2021/03/10 01:20:31;;;;;;;60.25;36.40;;;;;;;;;;5134763;27;20197;-66
2021/03/10 01:22:59;;;;;;;61.22;36.35;;;;;;;;;;5134891;27;20283;-65
2021/03/10 01:25:26;;;;;;;64.57;37.90;;;;;;;;;;5134697;27;20307;-66
2021/03/10 01:27:53;;;;;;;65.40;37.22;;;;;;;;;;5135212;27;20291;-67
2021/03/10 01:30:21;;;;;;;64.80;37.65;;;;;;;;;;5132315;27;20190;-65
2021/03/10 01:32:47;;;;;;;61.78;36.70;;;;;;;;;;5134625;27;20192;-65
2021/03/10 01:35:14;;;;;;;61.85;34.95;;;;;;;;;;5135209;27;20629;-66
2021/03/10 01:37:41;;;;;;;60.65;38.17;;;;;;;;;;5134710;27;20198;-66
2021/03/10 01:40:10;;;;;;;68.75;38.00;;;;;;;;;;5134110;27;20200;-66
2021/03/10 01:42:37;;;;;;;60.75;36.08;;;;;;;;;;5134645;27;20278;-66
2021/03/10 01:45:04;;;;;;;57.95;36.53;;;;;;;;;;5134741;27;20580;-66
2021/03/10 01:47:32;;;;;;;76.22;40.83;;;;;;;;;;5134442;27;20287;-66
2021/03/10 01:49:58;;;;;;;58.88;36.17;;;;;;;;;;5134270;27;20194;-65
2021/03/10 01:52:25;;;;;;;56.40;35.33;;;;;;;;;;5134566;27;20294;-65
2021/03/10 01:54:52;;;;;;;66.45;37.63;;;;;;;;;;5134560;27;20207;-65
2021/03/10 01:57:20;;;;;;;61.13;37.80;;;;;;;;;;5134403;27;20276;-65
2021/03/10 01:59:47;;;;;;;64.78;37.53;;;;;;;;;;5132352;27;20276;-64
2021/03/10 02:02:13;;;;;;;64.20;36.40;;;;;;;;;;5133581;27;20730;-64
2021/03/10 02:04:40;;;;;;;57.60;36.08;;;;;;;;;;5134249;27;20300;-65
2021/03/10 02:07:10;;;;;;;62.10;36.03;;;;;;;;;;5134688;27;20712;-65
2021/03/10 02:09:44;;;;;;;58.95;37.17;;;;;;;;;;5133864;27;20188;-65
2021/03/10 02:12:15;;;;;;;58.00;36.47;;;;;;;;;;5134240;27;20787;-65
2021/03/10 02:14:48;;;;;;;57.33;35.63;;;;;;;;;;5133496;27;20195;-65
2021/03/10 02:17:18;;;;;;;59.05;35.30;;;;;;;;;;5133839;27;20287;-64
2021/03/10 02:20:00;;;;;;;60.00;37.63;;;;;;;;;;5133549;28;20287;-65
2021/03/10 02:22:35;;;;;;;59.00;35.38;;;;;;;;;;5133609;28;20220;-65
2021/03/10 02:25:04;;;;;;;63.38;36.80;;;;;;;;;;5134248;28;20290;-65
2021/03/10 02:27:50;;;;;;;55.92;35.40;;;;;;;;;;5134238;28;20280;-65
2021/03/10 02:30:17;;;;;;;53.17;34.97;;;;;;;;;;5131495;28;20279;-65
2021/03/10 02:32:46;;;;;;;58.13;36.42;;;;;;;;;;5133484;28;20243;-65
2021/03/10 02:35:13;;;;;;;59.35;37.50;;;;;;;;;;5133969;28;20235;-65
2021/03/10 02:37:42;;;;;;;62.83;34.88;;;;;;;;;;5134231;28;20280;-65
2021/03/10 02:40:11;;;;;;;64.90;36.63;;;;;;;;;;5133630;28;20278;-65
2021/03/10 02:42:38;;;;;;;55.63;35.00;;;;;;;;;;5133370;28;20288;-64
2021/03/10 02:45:07;;;;;;;54.92;34.25;;;;;;;;;;5133543;28;20208;-64
2021/03/10 02:47:34;;;;;;;54.90;34.38;;;;;;;;;;5133747;28;20634;-65
2021/03/10 02:50:01;;;;;;;65.80;37.42;;;;;;;;;;5133806;28;20277;-65
2021/03/10 02:52:29;;;;;;;61.53;34.72;;;;;;;;;;5133335;28;20227;-65
2021/03/10 02:54:56;;;;;;;62.75;35.55;;;;;;;;;;5133440;28;20257;-66
2021/03/10 02:57:22;;;;;;;53.08;33.92;;;;;;;;;;5134539;28;20279;-66
2021/03/10 02:59:49;;;;;;;58.72;36.30;;;;;;;;;;5133701;28;20228;-64
2021/03/10 03:02:17;;;;;;;56.45;36.20;;;;;;;;;;5132202;28;20283;-65
2021/03/10 03:04:43;;;;;;;54.22;35.17;;;;;;;;;;5133399;28;20212;-65
2021/03/10 03:07:11;;;;;;;60.20;37.65;;;;;;;;;;5133632;28;20279;-66
2021/03/10 03:09:39;;;;;;;57.78;35.40;;;;;;;;;;5134065;28;20196;-64
2021/03/10 03:12:06;;;;;;;57.67;37.80;;;;;;;;;;5133354;28;20315;-65
2021/03/10 03:14:34;;;;;;;56.83;34.80;;;;;;;;;;5133592;28;20279;-64
2021/03/10 03:17:02;;;;;;;61.05;36.72;;;;;;;;;;5133497;28;20299;-65
2021/03/10 03:19:29;;;;;;;54.35;34.78;;;;;;;;;;5133584;28;20586;-65
2021/03/10 03:21:56;;;;;;;51.40;35.92;;;;;;;;;;5132781;28;20236;-64
2021/03/10 03:24:24;;;;;;;57.50;35.47;;;;;;;;;;5133163;28;20304;-65
2021/03/10 03:26:50;;;;;;;47.25;31.25;;;;;;;;;;5136720;27;20279;-65
2021/03/10 03:29:18;;;;;;;51.30;32.85;;;;;;;;;;5136813;27;20249;-65
2021/03/10 03:31:47;;;;;;;55.13;33.85;;;;;;;;;;5134436;27;20746;-64
2021/03/10 03:34:13;;;;;;;48.67;33.60;;;;;;;;;;5136753;27;20263;-65
2021/03/10 03:36:42;;;;;;;57.97;32.97;;;;;;;;;;5136749;27;20199;-65
2021/03/10 03:39:09;;;;;;;53.47;35.30;;;;;;;;;;5137059;27;20284;-65
2021/03/10 03:41:35;;;;;;;64.35;34.92;;;;;;;;;;5136751;27;20593;-65
2021/03/10 03:44:03;;;;;;;59.13;34.58;;;;;;;;;;5136415;27;20216;-65
2021/03/10 03:46:31;;;;;;;56.53;34.38;;;;;;;;;;5136897;27;20196;-65
2021/03/10 03:48:58;;;;;;;53.60;34.85;;;;;;;;;;5136607;27;20284;-65
2021/03/10 03:51:25;;;;;;;59.63;35.40;;;;;;;;;;5136958;27;20192;-64
2021/03/10 03:53:57;;;;;;;55.15;34.72;;;;;;;;;;5135863;27;20239;-64
2021/03/10 03:56:23;;;;;;;53.88;32.55;;;;;;;;;;5136298;27;20200;-64
2021/03/10 03:58:50;;;;;;;57.35;33.40;;;;;;;;;;5136611;27;20279;-64
2021/03/10 04:01:17;;;;;;;55.97;36.50;;;;;;;;;;5134834;27;20296;-64
2021/03/10 04:03:45;;;;;;;60.03;37.70;;;;;;;;;;5135786;27;20231;-64
2021/03/10 04:06:11;;;;;;;56.75;34.97;;;;;;;;;;5136151;27;20282;-64
2021/03/10 04:08:38;;;;;;;58.95;36.63;;;;;;;;;;5136321;27;20230;-64
2021/03/10 04:11:07;;;;;;;52.60;33.33;;;;;;;;;;5136238;27;20333;-64
2021/03/10 04:13:33;;;;;;;54.08;32.00;;;;;;;;;;5135982;27;20220;-64
2021/03/10 04:16:00;;;;;;;46.70;30.30;;;;;;;;;;5136345;27;20200;-64
2021/03/10 04:18:27;;;;;;;52.35;34.08;;;;;;;;;;5135982;27;20283;-65
2021/03/10 04:20:54;;;;;;;52.85;32.50;;;;;;;;;;5136049;27;20291;-64
2021/03/10 04:23:20;;;;;;;53.42;33.15;;;;;;;;;;5136000;27;20635;-64
2021/03/10 04:25:47;;;;;;;58.65;33.92;;;;;;;;;;5135856;27;20303;-64
2021/03/10 04:28:15;;;;;;;57.75;32.65;;;;;;;;;;5136088;27;20283;-64
2021/03/10 04:30:41;;;;;;;63.22;34.75;;;;;;;;;;5133986;27;20228;-63
2021/03/10 04:33:08;;;;;;;56.47;35.40;;;;;;;;;;5114678;28;20193;-64
2021/03/10 04:35:35;;;;;;;57.38;34.22;;;;;;;;;;5115536;28;20254;-65
2021/03/10 04:38:02;;;;;;;53.55;32.90;;;;;;;;;;5114969;28;20197;-65
2021/03/10 04:40:28;;;;;;;51.58;31.83;;;;;;;;;;5115616;28;20193;-65
2021/03/10 04:42:55;;;;;;;53.38;31.50;;;;;;;;;;5115570;28;20281;-65
2021/03/10 04:45:23;;;;;;;52.50;33.60;;;;;;;;;;5114832;28;20305;-65
2021/03/10 04:47:51;;;;;;;56.63;32.88;;;;;;;;;;5115103;28;20236;-65
2021/03/10 04:50:18;;;;;;;55.65;34.25;;;;;;;;;;5115154;28;20259;-65
2021/03/10 04:52:45;;;;;;;48.00;32.17;;;;;;;;;;5114875;28;20280;-64
2021/03/10 04:55:12;;;;;;;57.22;33.65;;;;;;;;;;5114124;28;20284;-64
2021/03/10 04:57:39;;;;;;;50.80;33.60;;;;;;;;;;5114792;28;20662;-65
2021/03/10 05:00:07;;;;;;;55.80;33.22;;;;;;;;;;5114726;28;20233;-65
2021/03/10 05:02:35;;;;;;;51.58;31.92;;;;;;;;;;5129425;27;20258;-64
2021/03/10 05:05:02;;;;;;;51.47;32.65;;;;;;;;;;5134866;27;20260;-64
2021/03/10 05:07:29;;;;;;;51.58;34.13;;;;;;;;;;5134921;27;20283;-66
2021/03/10 05:09:55;;;;;;;59.38;33.40;;;;;;;;;;5134839;27;20203;-64
2021/03/10 05:12:22;;;;;;;52.35;32.92;;;;;;;;;;5135172;27;20307;-64
2021/03/10 05:14:49;;;;;;;50.97;31.45;;;;;;;;;;5134391;27;20672;-64
2021/03/10 05:17:16;;;;;;;46.25;29.10;;;;;;;;;;5135563;27;20193;-63
2021/03/10 05:19:43;;;;;;;57.83;34.13;;;;;;;;;;5134813;27;20198;-64
2021/03/10 05:22:10;;;;;;;58.47;34.35;;;;;;;;;;5134481;27;20283;-64
2021/03/10 05:24:37;;;;;;;60.03;34.60;;;;;;;;;;5134393;27;20227;-64
2021/03/10 05:27:04;;;;;;;56.72;33.53;;;;;;;;;;5134405;27;20287;-64
2021/03/10 05:29:30;;;;;;;62.17;34.85;;;;;;;;;;5134544;27;20721;-64
2021/03/10 05:31:57;;;;;;;56.60;34.08;;;;;;;;;;5131932;27;20196;-64
2021/03/10 05:34:24;;;;;;;56.28;33.53;;;;;;;;;;5133384;27;20196;-64
2021/03/10 05:36:51;;;;;;;58.15;34.47;;;;;;;;;;5134653;27;20199;-65
2021/03/10 05:39:21;;;;;;;64.97;35.67;;;;;;;;;;5134574;27;20204;-64
2021/03/10 05:41:48;;;;;;;62.00;33.78;;;;;;;;;;5134687;27;20283;-64
2021/03/10 05:44:15;;;;;;;56.03;31.60;;;;;;;;;;5134041;27;20259;-64
2021/03/10 05:46:42;;;;;;;60.30;34.17;;;;;;;;;;5134712;27;20232;-64
2021/03/10 05:49:09;;;;;;;62.28;34.80;;;;;;;;;;5133373;27;20709;-64
2021/03/10 05:51:36;;;;;;;60.08;33.70;;;;;;;;;;5134205;27;20239;-64
2021/03/10 05:54:04;;;;;;;65.40;36.17;;;;;;;;;;5133393;27;20282;-64
2021/03/10 05:56:31;;;;;;;70.00;34.88;;;;;;;;;;5133014;27;20733;-64
2021/03/10 05:58:58;;;;;;;67.13;36.75;;;;;;;;;;5132906;27;20282;-64
2021/03/10 06:01:25;;;;;;;70.85;35.78;;;;;;;;;;5133420;27;20720;-64
2021/03/10 06:03:53;;;;;;;84.28;32.45;;;;;;;;;;5131689;27;20243;-65
2021/03/10 06:06:20;;;;;;;73.18;35.70;;;;;;;;;;5133536;27;20192;-64
2021/03/10 06:08:46;;;;;;;66.22;33.13;;;;;;;;;;5134197;27;20281;-65
2021/03/10 06:11:23;;;;;;;78.85;34.15;;;;;;;;;;5134584;27;20292;-64
2021/03/10 06:13:50;;;;;;;67.63;32.03;;;;;;;;;;5134384;27;20619;-65
2021/03/10 06:16:21;;;;;;;66.28;34.20;;;;;;;;;;5134027;27;20228;-65
2021/03/10 06:18:47;;;;;;;90.07;36.05;;;;;;;;;;5134251;27;20196;-65
2021/03/10 06:21:15;;;;;;;79.57;36.83;;;;;;;;;;5134215;27;20199;-65
2021/03/10 06:23:50;;;;;;;74.78;38.47;;;;;;;;;;5133242;28;20388;-65
2021/03/10 06:26:17;;;;;;;67.20;35.17;;;;;;;;;;5133465;28;20625;-65
2021/03/10 06:28:45;;;;;;;69.25;33.65;;;;;;;;;;5133130;28;20231;-65
2021/03/10 06:31:22;;;;;;;63.20;33.70;;;;;;;;;;5132507;28;20219;-65
2021/03/10 06:34:02;;;;;;;74.68;37.53;;;;;;;;;;5131745;28;20638;-64
2021/03/10 06:36:29;;;;;;;73.97;37.95;;;;;;;;;;5133037;28;20228;-65
2021/03/10 06:38:56;;;;;;;65.65;36.60;;;;;;;;;;5133155;28;20232;-65
2021/03/10 06:41:33;;;;;;;68.72;36.55;;;;;;;;;;5133890;28;20196;-67
2021/03/10 06:44:01;;;;;;;79.32;37.38;;;;;;;;;;5133520;28;20287;-65
2021/03/10 06:46:28;;;;;;;67.05;35.17;;;;;;;;;;5132953;28;20314;-64
2021/03/10 06:48:56;;;;;;;72.13;38.00;;;;;;;;;;5133623;28;20691;-64
2021/03/10 06:51:23;;;;;;;72.15;36.28;;;;;;;;;;5133532;28;20673;-64
2021/03/10 06:53:50;;;;;;;73.57;40.20;;;;;;;;;;5132703;28;20283;-63
2021/03/10 06:56:20;;;;;;;67.55;38.05;;;;;;;;;;5132816;28;20222;-63
2021/03/10 06:59:01;;;;;;;102.43;42.20;;;;;;;;;;5133189;28;20204;-63
2021/03/10 07:01:36;;;;;;;87.72;40.05;;;;;;;;;;5135626;27;20228;-63
2021/03/10 07:04:04;;;;;;;69.55;38.38;;;;;;;;;;5136066;27;20200;-62
2021/03/10 07:06:31;;;;;;;84.88;40.47;;;;;;;;;;5136683;27;20223;-63
2021/03/10 07:08:58;;;;;;;81.32;40.05;;;;;;;;;;5137364;27;20280;-63
2021/03/10 07:11:25;;;;;;;85.53;40.85;;;;;;;;;;5136822;27;20674;-63
2021/03/10 07:13:52;;;;;;;83.30;39.35;;;;;;;;;;5137539;27;20220;-62
2021/03/10 07:16:20;;;;;;;81.78;43.80;;;;;;;;;;5136691;27;20718;-63
2021/03/10 07:18:48;;;;;;;88.18;42.33;;;;;;;;;;5137810;27;20198;-63
2021/03/10 07:21:16;;;;;;;82.55;41.33;;;;;;;;;;5137036;27;20208;-63
2021/03/10 07:23:46;;;;;;;75.43;39.90;;;;;;;;;;5136966;27;20198;-63
2021/03/10 07:26:13;;;;;;;85.78;38.65;;;;;;;;;;5136723;27;20725;-63
2021/03/10 07:28:42;;;;;;;96.05;44.15;;;;;;;;;;5136817;27;20223;-63
2021/03/10 07:31:17;;;;;;;98.10;44.58;;;;;;;;;;5137059;27;20222;-63
2021/03/10 07:33:50;;;;;;;87.95;43.85;;;;;;;;;;5135296;27;20284;-63
2021/03/10 07:36:17;;;;;;;90.18;43.50;;;;;;;;;;5136631;27;20184;-63
2021/03/10 07:38:43;;;;;;;88.68;45.70;;;;;;;;;;5137404;27;20222;-64
2021/03/10 07:41:11;;;;;;;93.70;46.88;;;;;;;;;;5136547;27;20197;-63
2021/03/10 07:43:38;;;;;;;94.30;43.78;;;;;;;;;;5136591;27;20194;-63
2021/03/10 07:46:06;;;;;;;93.97;44.35;;;;;;;;;;5136132;27;20689;-63
2021/03/10 07:48:34;;;;;;;91.13;45.45;;;;;;;;;;5136610;27;20200;-63
2021/03/10 07:51:02;;;;;;;93.47;46.25;;;;;;;;;;5136386;27;20232;-63
2021/03/10 07:53:35;;;;;;;80.05;43.65;;;;;;;;;;5136344;27;20236;-63
2021/03/10 07:56:03;;;;;;;73.53;41.35;;;;;;;;;;5136215;27;20197;-62
2021/03/10 07:58:30;;;;;;;78.28;43.50;;;;;;;;;;5137066;27;20194;-63
2021/03/10 08:00:57;;;;;;;83.57;44.03;;;;;;;;;;5137000;27;20192;-63
2021/03/10 08:03:28;;;;;;;75.55;40.85;;;;;;;;;;5136339;27;20201;-63
2021/03/10 08:06:00;;;;;;;79.20;39.22;;;;;;;;;;5133942;27;20247;-63
2021/03/10 08:08:34;;;;;;;71.70;40.05;;;;;;;;;;5136402;27;20270;-63
2021/03/10 08:11:12;;;;;;;81.28;41.40;;;;;;;;;;5136316;27;20178;-62
2021/03/10 08:13:39;;;;;;;66.72;40.65;;;;;;;;;;5135533;27;20626;-63
2021/03/10 08:16:07;;;;;;;70.22;39.88;;;;;;;;;;5135751;27;20208;-63
2021/03/10 08:18:34;;;;;;;65.55;38.80;;;;;;;;;;5135914;27;20197;-63
2021/03/10 08:21:07;;;;;;;68.85;38.40;;;;;;;;;;5135963;27;20197;-63
2021/03/10 08:23:34;;;;;;;60.17;37.20;;;;;;;;;;5136290;27;20259;-63
2021/03/10 08:26:01;;;;;;;62.58;35.83;;;;;;;;;;5135921;27;20342;-63
2021/03/10 08:28:32;;;;;;;64.72;35.85;;;;;;;;;;5135819;27;20191;-63
2021/03/10 08:31:01;;;;;;;61.13;36.70;;;;;;;;;;5136212;27;20267;-63
2021/03/10 08:33:28;;;;;;;59.30;35.78;;;;;;;;;;5135643;27;20228;-64
2021/03/10 08:35:55;;;;;;;62.90;34.78;;;;;;;;;;5134028;27;20205;-63
2021/03/10 08:38:21;;;;;;;64.80;37.15;;;;;;;;;;5135217;27;20192;-63
2021/03/10 08:40:49;;;;;;;54.55;35.38;;;;;;;;;;5135285;27;20196;-63
2021/03/10 08:43:20;;;;;;;51.72;33.35;;;;;;;;;;5135365;27;20197;-63
2021/03/10 08:45:47;;;;;;;59.30;33.47;;;;;;;;;;5135214;27;20278;-63
2021/03/10 08:48:15;;;;;;;54.10;33.05;;;;;;;;;;5134902;27;20288;-63
2021/03/10 08:50:42;;;;;;;57.97;35.80;;;;;;;;;;5135063;27;20661;-63
2021/03/10 08:53:11;;;;;;;54.00;33.50;;;;;;;;;;5135163;27;20279;-63
2021/03/10 08:55:38;;;;;;;49.78;31.45;;;;;;;;;;5135961;27;20550;-63
2021/03/10 08:58:10;;;;;;;54.13;33.63;;;;;;;;;;5135138;27;20287;-63
2021/03/10 09:00:37;;;;;;;47.00;30.92;;;;;;;;;;5135219;27;20232;-63
2021/03/10 09:03:11;;;;;;;55.72;34.65;;;;;;;;;;5135356;27;20284;-63
2021/03/10 09:05:38;;;;;;;57.30;32.17;;;;;;;;;;5133913;27;20296;-63
2021/03/10 09:08:06;;;;;;;52.25;31.83;;;;;;;;;;5134754;27;20227;-63
2021/03/10 09:10:34;;;;;;;51.53;30.70;;;;;;;;;;5135406;27;20281;-63
2021/03/10 09:13:00;;;;;;;54.65;31.17;;;;;;;;;;5135502;27;20311;-63
2021/03/10 09:15:29;;;;;;;45.38;29.63;;;;;;;;;;5135105;27;20189;-64
2021/03/10 09:18:00;;;;;;;47.40;29.23;;;;;;;;;;5135134;27;20196;-63
2021/03/10 09:20:28;;;;;;;46.75;28.88;;;;;;;;;;5135304;27;20253;-64
2021/03/10 09:22:55;;;;;;;44.70;29.48;;;;;;;;;;5134938;27;20283;-63
2021/03/10 09:25:22;;;;;;;42.40;27.35;;;;;;;;;;5135435;27;20636;-63
2021/03/10 09:27:49;;;;;;;46.22;31.35;;;;;;;;;;5134958;27;20588;-62
2021/03/10 09:30:27;;;;;;;43.40;29.65;;;;;;;;;;5134887;27;20192;-64
2021/03/10 09:32:55;;;;;;;46.13;28.98;;;;;;;;;;5135502;27;20193;-63
2021/03/10 09:35:22;;;;;;;45.38;29.40;;;;;;;;;;5135060;27;20197;-63
2021/03/10 09:37:51;;;;;;;46.45;29.48;;;;;;;;;;5132578;27;20225;-63
2021/03/10 09:40:18;;;;;;;47.08;29.10;;;;;;;;;;5135017;27;20275;-63
2021/03/10 09:42:58;;;;;;;47.90;29.73;;;;;;;;;;5135078;27;20228;-63
2021/03/10 09:45:25;;;;;;;47.70;31.25;;;;;;;;;;5134559;27;20223;-63
2021/03/10 09:47:52;;;;;;;44.90;29.92;;;;;;;;;;5134439;27;20207;-64
2021/03/10 09:50:27;;;;;;;42.00;28.55;;;;;;;;;;5134845;27;20559;-64
2021/03/10 09:52:54;;;;;;;46.08;29.45;;;;;;;;;;5134953;27;20188;-64
2021/03/10 09:55:21;;;;;;;48.20;29.30;;;;;;;;;;5135028;27;20648;-64
2021/03/10 09:57:48;;;;;;;38.92;28.67;;;;;;;;;;5134835;27;20232;-64
2021/03/10 10:00:19;;;;;;;47.35;27.88;;;;;;;;;;5134560;27;20316;-63
2021/03/10 10:02:47;;;;;;;40.75;28.73;;;;;;;;;;5134861;27;20231;-63
2021/03/10 10:05:21;;;;;;;45.63;28.58;;;;;;;;;;5134206;27;20217;-63
2021/03/10 10:07:49;;;;;;;41.28;27.33;;;;;;;;;;5132865;27;20196;-64
2021/03/10 10:10:16;;;;;;;46.15;29.23;;;;;;;;;;5134196;27;20200;-63
2021/03/10 10:12:44;;;;;;;38.17;26.70;;;;;;;;;;5134540;27;20686;-63
2021/03/10 10:15:11;;;;;;;38.85;25.17;;;;;;;;;;5134673;27;20229;-64
2021/03/10 10:17:40;;;;;;;43.58;26.35;;;;;;;;;;5135043;27;20284;-63
2021/03/10 10:20:08;;;;;;;36.42;25.10;;;;;;;;;;5134513;27;20193;-64
2021/03/10 10:22:35;;;;;;;39.85;26.15;;;;;;;;;;5134437;28;20229;-63
2021/03/10 10:25:03;;;;;;;36.05;24.60;;;;;;;;;;5134280;28;20219;-62
2021/03/10 10:27:30;;;;;;;39.25;24.35;;;;;;;;;;5134674;28;20201;-63
2021/03/10 10:29:57;;;;;;;40.58;24.60;;;;;;;;;;5134269;28;20193;-63
2021/03/10 10:32:24;;;;;;;36.33;26.00;;;;;;;;;;5133949;28;20209;-63
2021/03/10 10:34:51;;;;;;;36.28;25.90;;;;;;;;;;5134117;27;20668;-64
2021/03/10 10:37:17;;;;;;;43.08;27.00;;;;;;;;;;5136166;27;20197;-63
2021/03/10 10:39:44;;;;;;;38.33;24.23;;;;;;;;;;5138286;27;20563;-63
2021/03/10 10:42:12;;;;;;;42.78;25.73;;;;;;;;;;5138254;27;20659;-63
2021/03/10 10:44:39;;;;;;;38.92;25.45;;;;;;;;;;5138988;27;20305;-63
2021/03/10 10:47:06;;;;;;;48.40;28.42;;;;;;;;;;5138360;27;20704;-66
2021/03/10 10:49:32;;;;;;;46.28;27.65;;;;;;;;;;5137932;27;20663;-63
2021/03/10 10:51:59;;;;;;;44.83;27.38;;;;;;;;;;5138365;27;20189;-64
2021/03/10 10:54:26;;;;;;;41.63;27.77;;;;;;;;;;5138299;27;20281;-63
2021/03/10 10:56:53;;;;;;;43.25;29.05;;;;;;;;;;5137663;27;20286;-63
2021/03/10 10:59:20;;;;;;;48.72;28.75;;;;;;;;;;5137878;27;20252;-63
2021/03/10 11:01:47;;;;;;;41.53;28.48;;;;;;;;;;5138186;27;20234;-64
2021/03/10 11:04:14;;;;;;;40.45;26.65;;;;;;;;;;5138103;27;20290;-63
2021/03/10 11:06:41;;;;;;;44.13;29.48;;;;;;;;;;5137775;27;20195;-64
2021/03/10 11:09:07;;;;;;;43.53;27.55;;;;;;;;;;5135747;27;20230;-63
2021/03/10 11:11:34;;;;;;;46.42;28.13;;;;;;;;;;5137312;27;20290;-63
2021/03/10 11:14:01;;;;;;;45.15;30.00;;;;;;;;;;5137662;27;20269;-63
2021/03/10 11:16:29;;;;;;;38.42;28.08;;;;;;;;;;5137926;27;20225;-63
2021/03/10 11:18:56;;;;;;;45.53;29.23;;;;;;;;;;5138118;27;20636;-63
2021/03/10 11:21:23;;;;;;;44.42;29.45;;;;;;;;;;5137481;27;20206;-63
2021/03/10 11:23:50;;;;;;;43.50;29.50;;;;;;;;;;5137922;27;20525;-63
2021/03/10 11:26:16;;;;;;;45.38;28.83;;;;;;;;;;5137471;27;20349;-63
2021/03/10 11:28:43;;;;;;;39.22;26.42;;;;;;;;;;5137283;27;20224;-64
2021/03/10 11:31:10;;;;;;;42.40;28.15;;;;;;;;;;5137059;27;20247;-64
2021/03/10 11:33:38;;;;;;;45.55;28.45;;;;;;;;;;5137510;27;20198;-64
2021/03/10 11:36:06;;;;;;;50.92;29.63;;;;;;;;;;5137413;27;20203;-63
2021/03/10 11:38:33;;;;;;;43.33;27.10;;;;;;;;;;5135053;27;20334;-63
2021/03/10 11:40:59;;;;;;;46.17;29.48;;;;;;;;;;5136464;27;20279;-64
2021/03/10 11:43:26;;;;;;;47.80;30.02;;;;;;;;;;5137166;27;20202;-62
2021/03/10 11:45:53;;;;;;;42.33;28.73;;;;;;;;;;5137035;27;20223;-62
2021/03/10 11:48:19;;;;;;;43.22;29.27;;;;;;;;;;5135346;27;20565;-63
2021/03/10 11:50:47;;;;;;;39.63;26.63;;;;;;;;;;5136399;27;20244;-62
2021/03/10 11:53:14;;;;;;;44.75;28.67;;;;;;;;;;5137342;27;20233;-63
2021/03/10 11:55:41;;;;;;;37.55;25.70;;;;;;;;;;5136898;27;20287;-62
2021/03/10 11:58:08;;;;;;;39.60;27.50;;;;;;;;;;5137039;27;20244;-62
2021/03/10 12:00:37;;;;;;;43.00;27.45;;;;;;;;;;5136051;27;20275;-63
2021/03/10 12:03:05;;;;;;;41.80;27.77;;;;;;;;;;5136706;27;20199;-64
2021/03/10 12:05:32;;;;;;;40.17;26.52;;;;;;;;;;5136457;27;20258;-63
2021/03/10 12:08:00;;;;;;;41.67;27.00;;;;;;;;;;5136940;27;20202;-64
2021/03/10 12:10:26;;;;;;;42.22;27.40;;;;;;;;;;5134088;27;20634;-64
2021/03/10 12:12:53;;;;;;;41.75;24.63;;;;;;;;;;5136575;27;20225;-64
2021/03/10 12:15:20;;;;;;;41.92;27.75;;;;;;;;;;5136610;27;20201;-64
2021/03/10 12:17:47;;;;;;;50.72;29.60;;;;;;;;;;5136160;27;20703;-64
2021/03/10 12:20:14;;;;;;;41.05;27.67;;;;;;;;;;5136700;27;20203;-63
2021/03/10 12:22:41;;;;;;;39.10;28.05;;;;;;;;;;5136497;27;20227;-63
2021/03/10 12:25:09;;;;;;;37.97;25.80;;;;;;;;;;5136460;27;20269;-64
2021/03/10 12:27:36;;;;;;;38.75;26.95;;;;;;;;;;5136633;27;20195;-63
2021/03/10 12:30:03;;;;;;;36.55;25.65;;;;;;;;;;5136023;27;20308;-64
2021/03/10 12:32:30;;;;;;;42.08;27.98;;;;;;;;;;5135946;27;20194;-62
2021/03/10 12:34:57;;;;;;;40.10;27.55;;;;;;;;;;5136503;27;20245;-62
2021/03/10 12:37:24;;;;;;;40.90;26.67;;;;;;;;;;5136137;27;20245;-63
2021/03/10 12:39:50;;;;;;;45.63;30.67;;;;;;;;;;5133407;27;20199;-63
2021/03/10 12:42:19;;;;;;;41.90;28.77;;;;;;;;;;5135429;27;20676;-62
2021/03/10 12:44:46;;;;;;;44.30;28.95;;;;;;;;;;5135648;27;20220;-62
2021/03/10 12:47:12;;;;;;;43.53;27.35;;;;;;;;;;5136009;27;20547;-64
2021/03/10 12:49:40;;;;;;;39.33;27.00;;;;;;;;;;5135576;27;20194;-63
2021/03/10 12:52:07;;;;;;;38.65;27.10;;;;;;;;;;5135344;27;20252;-64
2021/03/10 12:54:33;;;;;;;41.42;28.10;;;;;;;;;;5136037;27;20209;-63
2021/03/10 12:57:01;;;;;;;44.83;28.88;;;;;;;;;;5135712;27;20240;-63
2021/03/10 12:59:28;;;;;;;41.63;27.63;;;;;;;;;;5135377;27;20196;-63
2021/03/10 13:01:55;;;;;;;35.33;24.88;;;;;;;;;;5135203;27;20278;-65
2021/03/10 13:04:22;;;;;;;41.70;25.30;;;;;;;;;;5135050;27;20244;-63
2021/03/10 13:06:49;;;;;;;35.43;25.20;;;;;;;;;;5135675;27;20196;-63
2021/03/10 13:09:15;;;;;;;37.72;22.83;;;;;;;;;;5134569;27;20521;-63
2021/03/10 13:11:42;;;;;;;36.17;23.70;;;;;;;;;;5133938;27;20642;-62
2021/03/10 13:14:09;;;;;;;33.28;23.80;;;;;;;;;;5135379;27;20187;-62
2021/03/10 13:16:37;;;;;;;40.22;23.80;;;;;;;;;;5135803;27;20224;-63
2021/03/10 13:19:04;;;;;;;32.60;21.50;;;;;;;;;;5135669;27;20528;-63
2021/03/10 13:21:31;;;;;;;37.50;24.67;;;;;;;;;;5134777;27;20649;-63
2021/03/10 13:23:58;;;;;;;35.38;24.48;;;;;;;;;;5135378;27;20272;-63
2021/03/10 13:26:25;;;;;;;37.75;24.60;;;;;;;;;;5134870;27;20309;-63
2021/03/10 13:28:53;;;;;;;41.05;24.27;;;;;;;;;;5134883;27;20690;-63
2021/03/10 13:31:20;;;;;;;32.75;23.52;;;;;;;;;;5135144;27;20195;-63
2021/03/10 13:33:48;;;;;;;29.52;20.38;;;;;;;;;;5134873;27;20284;-62
2021/03/10 13:36:14;;;;;;;35.45;20.67;;;;;;;;;;5134997;27;20251;-63
2021/03/10 13:38:41;;;;;;;33.20;22.45;;;;;;;;;;5134544;27;20199;-63
2021/03/10 13:41:08;;;;;;;27.48;18.13;;;;;;;;;;5132876;27;20286;-64
2021/03/10 13:43:35;;;;;;;28.52;19.45;;;;;;;;;;5134331;27;20290;-63
2021/03/10 13:46:02;;;;;;;25.30;18.73;;;;;;;;;;5135214;27;20224;-64
2021/03/10 13:48:29;;;;;;;22.88;17.33;;;;;;;;;;5134794;27;20212;-67
2021/03/10 13:50:56;;;;;;;25.85;18.45;;;;;;;;;;5134600;27;20679;-67
2021/03/10 13:53:23;;;;;;;29.75;18.73;;;;;;;;;;5134570;27;20259;-72
2021/03/10 13:55:50;;;;;;;29.98;18.23;;;;;;;;;;5134557;27;20284;-71
2021/03/10 13:58:16;;;;;;;24.48;17.65;;;;;;;;;;5134492;27;20234;-65
2021/03/10 14:00:43;;;;;;;24.98;17.30;;;;;;;;;;5134956;27;20243;-66
2021/03/10 14:03:13;;;;;;;24.20;17.55;;;;;;;;;;5134594;27;20277;-68
2021/03/10 14:05:40;;;;;;;29.27;15.77;;;;;;;;;;5134468;27;20217;-66
2021/03/10 14:08:08;;;;;;;22.38;15.90;;;;;;;;;;5134401;27;20201;-65
2021/03/10 14:10:34;;;;;;;23.85;14.45;;;;;;;;;;5131071;27;20205;-65
2021/03/10 14:13:01;;;;;;;20.13;15.07;;;;;;;;;;5134056;27;20321;-66
2021/03/10 14:15:28;;;;;;;26.67;13.82;;;;;;;;;;5134106;27;20252;-66
2021/03/10 14:17:55;;;;;;;21.27;14.18;;;;;;;;;;5134105;27;20235;-66
2021/03/10 14:20:22;;;;;;;17.90;12.98;;;;;;;;;;5133871;27;20317;-66